ANA1723 ROAH-ROMY
Flight info
| Callsign | ANA1723 |
|---|---|
| Flight time | 0h 37m |
| Altitude | 20000 |
| Route | GANJU Y576 YUTAH |
| Aircraft | B738/M-SDE2E3FGHIRWXY/LB1 |
Departure
| Time | 2026-04-20 00:47 |
|---|---|
| Airport | Naha International Airport (ROAH) |
Arrival
| Time | 2026-04-20 01:25 |
|---|---|
| Airport | Miyako Airport (ROMY) |
| Time | Latitude | Longitude | Altitude | Speed | Heading |
|---|---|---|---|---|---|
| 2026-04-20 00:30 | 26.20441 | 127.64874 | 19 ft | 0 kts | 49° |
| 2026-04-20 00:37 | 26.20432 | 127.64862 | 19 ft | 3 kts | 49° |
| 2026-04-20 00:37 | 26.20419 | 127.64846 | 19 ft | 3 kts | 49° |
| 2026-04-20 00:38 | 26.20407 | 127.64830 | 19 ft | 3 kts | 49° |
| 2026-04-20 00:38 | 26.20403 | 127.64825 | 21 ft | 0 kts | 49° |
| 2026-04-20 00:41 | 26.20405 | 127.64826 | 21 ft | 1 kts | 33° |
| 2026-04-20 00:41 | 26.20412 | 127.64817 | 20 ft | 2 kts | 282° |
| 2026-04-20 00:41 | 26.20385 | 127.64787 | 7 ft | 10 kts | 217° |
| 2026-04-20 00:42 | 26.20294 | 127.64768 | 18 ft | 17 kts | 181° |
| 2026-04-20 00:42 | 26.20154 | 127.64776 | 18 ft | 23 kts | 181° |
| 2026-04-20 00:42 | 26.19978 | 127.64785 | 18 ft | 26 kts | 179° |
| 2026-04-20 00:42 | 26.19803 | 127.64793 | 18 ft | 24 kts | 178° |
| 2026-04-20 00:43 | 26.19639 | 127.64801 | 18 ft | 23 kts | 177° |
| 2026-04-20 00:43 | 26.19482 | 127.64808 | 18 ft | 22 kts | 178° |
| 2026-04-20 00:43 | 26.19332 | 127.64814 | 18 ft | 22 kts | 178° |
| 2026-04-20 00:43 | 26.19183 | 127.64821 | 18 ft | 21 kts | 178° |
| 2026-04-20 00:44 | 26.19039 | 127.64827 | 18 ft | 20 kts | 178° |
| 2026-04-20 00:44 | 26.18899 | 127.64835 | 18 ft | 20 kts | 177° |
| 2026-04-20 00:44 | 26.18763 | 127.64842 | 20 ft | 19 kts | 178° |
| 2026-04-20 00:44 | 26.18630 | 127.64848 | 18 ft | 19 kts | 178° |
| 2026-04-20 00:45 | 26.18497 | 127.64854 | 18 ft | 19 kts | 178° |
| 2026-04-20 00:45 | 26.18368 | 127.64860 | 17 ft | 18 kts | 178° |
| 2026-04-20 00:45 | 26.18255 | 127.64829 | 17 ft | 18 kts | 239° |
| 2026-04-20 00:45 | 26.18243 | 127.64764 | 17 ft | 0 kts | 266° |
| 2026-04-20 00:46 | 26.18243 | 127.64762 | 17 ft | 1 kts | 266° |
| 2026-04-20 00:46 | 26.18242 | 127.64731 | 16 ft | 9 kts | 268° |
| 2026-04-20 00:46 | 26.18292 | 127.64657 | 16 ft | 17 kts | 348° |
| 2026-04-20 00:46 | 26.18453 | 127.64647 | 17 ft | 45 kts | 358° |
| 2026-04-20 00:47 | 26.19033 | 127.64620 | 19 ft | 120 kts | 357° |
| 2026-04-20 00:47 | 26.20083 | 127.64571 | 75 ft | 176 kts | 356° |
| 2026-04-20 00:47 | 26.21366 | 127.64545 | 795 ft | 190 kts | 358° |
| 2026-04-20 00:47 | 26.22739 | 127.64569 | 1433 ft | 211 kts | 356° |
| 2026-04-20 00:48 | 26.24308 | 127.64485 | 1694 ft | 239 kts | 355° |
| 2026-04-20 00:48 | 26.25972 | 127.64166 | 2144 ft | 248 kts | 334° |
| 2026-04-20 00:48 | 26.27485 | 127.63234 | 2871 ft | 248 kts | 329° |
| 2026-04-20 00:48 | 26.28972 | 127.62264 | 3688 ft | 249 kts | 328° |
| 2026-04-20 00:49 | 26.30498 | 127.61273 | 4308 ft | 256 kts | 327° |
| 2026-04-20 00:49 | 26.32049 | 127.60271 | 5027 ft | 259 kts | 327° |
| 2026-04-20 00:49 | 26.33617 | 127.59264 | 5729 ft | 262 kts | 327° |
| 2026-04-20 00:49 | 26.35191 | 127.58257 | 6386 ft | 266 kts | 327° |
| 2026-04-20 00:50 | 26.36803 | 127.57227 | 7060 ft | 268 kts | 327° |
| 2026-04-20 00:50 | 26.38421 | 127.56193 | 7744 ft | 269 kts | 328° |
| 2026-04-20 00:50 | 26.39993 | 127.55047 | 8390 ft | 270 kts | 314° |
| 2026-04-20 00:50 | 26.41019 | 127.53320 | 9050 ft | 271 kts | 290° |
| 2026-04-20 00:51 | 26.41285 | 127.51231 | 9701 ft | 276 kts | 266° |
| 2026-04-20 00:51 | 26.40741 | 127.49150 | 10282 ft | 286 kts | 244° |
| 2026-04-20 00:51 | 26.39531 | 127.47339 | 10695 ft | 300 kts | 233° |
| 2026-04-20 00:51 | 26.38093 | 127.45531 | 10824 ft | 321 kts | 232° |
| 2026-04-20 00:52 | 26.36563 | 127.43618 | 10974 ft | 339 kts | 232° |
| 2026-04-20 00:52 | 26.34999 | 127.41638 | 11321 ft | 349 kts | 232° |
| 2026-04-20 00:52 | 26.33340 | 127.39618 | 11818 ft | 355 kts | 229° |
| 2026-04-20 00:52 | 26.31585 | 127.37673 | 12335 ft | 360 kts | 228° |
| 2026-04-20 00:53 | 26.29763 | 127.35715 | 12813 ft | 365 kts | 227° |
| 2026-04-20 00:53 | 26.27917 | 127.33735 | 13273 ft | 370 kts | 228° |
| 2026-04-20 00:53 | 26.26056 | 127.31727 | 13737 ft | 375 kts | 228° |
| 2026-04-20 00:53 | 26.24179 | 127.29692 | 14183 ft | 378 kts | 228° |
| 2026-04-20 00:54 | 26.22292 | 127.27637 | 14739 ft | 378 kts | 228° |
| 2026-04-20 00:54 | 26.20418 | 127.25594 | 15270 ft | 378 kts | 228° |
| 2026-04-20 00:54 | 26.18536 | 127.23538 | 15766 ft | 380 kts | 228° |
| 2026-04-20 00:54 | 26.16642 | 127.21470 | 16258 ft | 381 kts | 228° |
| 2026-04-20 00:55 | 26.14744 | 127.19400 | 16754 ft | 383 kts | 227° |
| 2026-04-20 00:55 | 26.12844 | 127.17317 | 17257 ft | 383 kts | 230° |
| 2026-04-20 00:55 | 26.11238 | 127.15018 | 17728 ft | 380 kts | 240° |
| 2026-04-20 00:55 | 26.09827 | 127.12522 | 18209 ft | 381 kts | 241° |
| 2026-04-20 00:56 | 26.08454 | 127.09995 | 18604 ft | 383 kts | 242° |
| 2026-04-20 00:56 | 26.07070 | 127.07444 | 19001 ft | 386 kts | 242° |
| 2026-04-20 00:56 | 26.05668 | 127.04894 | 19391 ft | 388 kts | 241° |
| 2026-04-20 00:56 | 26.04241 | 127.02329 | 19774 ft | 390 kts | 241° |
| 2026-04-20 00:57 | 26.02797 | 126.99757 | 20023 ft | 391 kts | 241° |
| 2026-04-20 00:57 | 26.01353 | 126.97202 | 20039 ft | 391 kts | 240° |
| 2026-04-20 00:57 | 25.99898 | 126.94636 | 20048 ft | 392 kts | 240° |
| 2026-04-20 00:57 | 25.98444 | 126.92073 | 20051 ft | 392 kts | 240° |
| 2026-04-20 00:58 | 25.97003 | 126.89536 | 20056 ft | 392 kts | 240° |
| 2026-04-20 00:58 | 25.95546 | 126.86973 | 20056 ft | 392 kts | 240° |
| 2026-04-20 00:58 | 25.94091 | 126.84412 | 20052 ft | 392 kts | 240° |
| 2026-04-20 00:58 | 25.92628 | 126.81839 | 20049 ft | 392 kts | 240° |
| 2026-04-20 00:59 | 25.91171 | 126.79276 | 20053 ft | 392 kts | 240° |
| 2026-04-20 00:59 | 25.89716 | 126.76719 | 20053 ft | 392 kts | 240° |
| 2026-04-20 00:59 | 25.88253 | 126.74151 | 20051 ft | 392 kts | 240° |
| 2026-04-20 00:59 | 25.86801 | 126.71593 | 20054 ft | 391 kts | 241° |
| 2026-04-20 01:00 | 25.85417 | 126.68995 | 20050 ft | 391 kts | 243° |
| 2026-04-20 01:00 | 25.84077 | 126.66371 | 20055 ft | 390 kts | 243° |
| 2026-04-20 01:00 | 25.82771 | 126.63778 | 20047 ft | 390 kts | 243° |
| 2026-04-20 01:00 | 25.81446 | 126.61153 | 20049 ft | 390 kts | 243° |
| 2026-04-20 01:01 | 25.80119 | 126.58534 | 20050 ft | 390 kts | 243° |
| 2026-04-20 01:01 | 25.78784 | 126.55914 | 20053 ft | 390 kts | 243° |
| 2026-04-20 01:01 | 25.77445 | 126.53298 | 20052 ft | 390 kts | 243° |
| 2026-04-20 01:01 | 25.76104 | 126.50683 | 20049 ft | 389 kts | 243° |
| 2026-04-20 01:02 | 25.74764 | 126.48076 | 20052 ft | 389 kts | 243° |
| 2026-04-20 01:02 | 25.73420 | 126.45463 | 20057 ft | 389 kts | 243° |
| 2026-04-20 01:02 | 25.72078 | 126.42857 | 20047 ft | 389 kts | 243° |
| 2026-04-20 01:02 | 25.70734 | 126.40248 | 20050 ft | 389 kts | 243° |
| 2026-04-20 01:03 | 25.69386 | 126.37634 | 20057 ft | 389 kts | 243° |
| 2026-04-20 01:03 | 25.68039 | 126.35023 | 20049 ft | 390 kts | 243° |
| 2026-04-20 01:03 | 25.66696 | 126.32421 | 20064 ft | 390 kts | 243° |
| 2026-04-20 01:03 | 25.65348 | 126.29812 | 20053 ft | 390 kts | 243° |
| 2026-04-20 01:04 | 25.64015 | 126.27231 | 20051 ft | 390 kts | 243° |
| 2026-04-20 01:04 | 25.62664 | 126.24618 | 20061 ft | 390 kts | 243° |
| 2026-04-20 01:04 | 25.61318 | 126.22016 | 20050 ft | 390 kts | 243° |
| 2026-04-20 01:04 | 25.59967 | 126.19406 | 20061 ft | 390 kts | 243° |
| 2026-04-20 01:05 | 25.58615 | 126.16795 | 20050 ft | 390 kts | 243° |
| 2026-04-20 01:05 | 25.57264 | 126.14187 | 20051 ft | 390 kts | 243° |
| 2026-04-20 01:05 | 25.55912 | 126.11579 | 20054 ft | 390 kts | 243° |
| 2026-04-20 01:05 | 25.54561 | 126.08974 | 20062 ft | 390 kts | 243° |
| 2026-04-20 01:06 | 25.53210 | 126.06372 | 20056 ft | 390 kts | 243° |
| 2026-04-20 01:06 | 25.51854 | 126.03760 | 20050 ft | 390 kts | 243° |
| 2026-04-20 01:06 | 25.50504 | 126.01163 | 20061 ft | 390 kts | 243° |
| 2026-04-20 01:06 | 25.49149 | 125.98556 | 20050 ft | 390 kts | 243° |
| 2026-04-20 01:07 | 25.47791 | 125.95943 | 19829 ft | 392 kts | 242° |
| 2026-04-20 01:07 | 25.46449 | 125.93365 | 19575 ft | 389 kts | 242° |
| 2026-04-20 01:07 | 25.45096 | 125.90767 | 19135 ft | 390 kts | 242° |
| 2026-04-20 01:07 | 25.43749 | 125.88181 | 18747 ft | 387 kts | 242° |
| 2026-04-20 01:08 | 25.42405 | 125.85604 | 18291 ft | 387 kts | 242° |
| 2026-04-20 01:08 | 25.41174 | 125.82957 | 17777 ft | 385 kts | 247° |
| 2026-04-20 01:08 | 25.39654 | 125.80511 | 17237 ft | 391 kts | 224° |
| 2026-04-20 01:08 | 25.37358 | 125.78930 | 16754 ft | 395 kts | 200° |
| 2026-04-20 01:09 | 25.34681 | 125.78171 | 16302 ft | 394 kts | 200° |
| 2026-04-20 01:09 | 25.32331 | 125.76703 | 15786 ft | 389 kts | 225° |
| 2026-04-20 01:09 | 25.30754 | 125.74312 | 15321 ft | 381 kts | 248° |
| 2026-04-20 01:09 | 25.29769 | 125.71610 | 14888 ft | 379 kts | 251° |
| 2026-04-20 01:10 | 25.28779 | 125.68914 | 14419 ft | 379 kts | 248° |
| 2026-04-20 01:10 | 25.26128 | 125.63912 | 13471 ft | 382 kts | 234° |
| 2026-04-20 01:10 | 25.24432 | 125.61648 | 12970 ft | 382 kts | 230° |
| 2026-04-20 01:11 | 25.22601 | 125.59531 | 12469 ft | 381 kts | 226° |
| 2026-04-20 01:11 | 25.20694 | 125.57506 | 11989 ft | 380 kts | 225° |
| 2026-04-20 01:11 | 25.18745 | 125.55531 | 11507 ft | 379 kts | 224° |
| 2026-04-20 01:11 | 25.16781 | 125.53583 | 11032 ft | 378 kts | 223° |
| 2026-04-20 01:12 | 25.14827 | 125.51663 | 10667 ft | 373 kts | 223° |
| 2026-04-20 01:12 | 25.12916 | 125.49790 | 10573 ft | 360 kts | 223° |
| 2026-04-20 01:12 | 25.11079 | 125.47988 | 10551 ft | 346 kts | 223° |
| 2026-04-20 01:12 | 25.09309 | 125.46252 | 10538 ft | 333 kts | 223° |
| 2026-04-20 01:13 | 25.07615 | 125.44589 | 10534 ft | 320 kts | 223° |
| 2026-04-20 01:13 | 25.06005 | 125.43007 | 10537 ft | 307 kts | 224° |
| 2026-04-20 01:13 | 25.04442 | 125.41471 | 10537 ft | 295 kts | 224° |
| 2026-04-20 01:13 | 25.02938 | 125.39993 | 10535 ft | 284 kts | 224° |
| 2026-04-20 01:14 | 25.01490 | 125.38570 | 10487 ft | 274 kts | 224° |
| 2026-04-20 01:14 | 25.00054 | 125.37158 | 10122 ft | 278 kts | 224° |
| 2026-04-20 01:14 | 24.98610 | 125.35738 | 9771 ft | 279 kts | 224° |
| 2026-04-20 01:14 | 24.97163 | 125.34315 | 9389 ft | 277 kts | 224° |
| 2026-04-20 01:15 | 24.95723 | 125.32902 | 9012 ft | 276 kts | 224° |
| 2026-04-20 01:15 | 24.94293 | 125.31498 | 8638 ft | 275 kts | 224° |
| 2026-04-20 01:15 | 24.92867 | 125.30100 | 8271 ft | 274 kts | 224° |
| 2026-04-20 01:15 | 24.91470 | 125.28729 | 7909 ft | 273 kts | 224° |
| 2026-04-20 01:16 | 24.90056 | 125.27344 | 7544 ft | 270 kts | 224° |
| 2026-04-20 01:16 | 24.88657 | 125.25973 | 7185 ft | 269 kts | 224° |
| 2026-04-20 01:16 | 24.87261 | 125.24605 | 6828 ft | 267 kts | 224° |
| 2026-04-20 01:16 | 24.85877 | 125.23250 | 6449 ft | 265 kts | 224° |
| 2026-04-20 01:17 | 24.84506 | 125.21907 | 6072 ft | 263 kts | 224° |
| 2026-04-20 01:17 | 24.83142 | 125.20572 | 5749 ft | 262 kts | 224° |
| 2026-04-20 01:17 | 24.81773 | 125.19231 | 5346 ft | 264 kts | 223° |
| 2026-04-20 01:17 | 24.80417 | 125.17906 | 4986 ft | 264 kts | 224° |
| 2026-04-20 01:18 | 24.79048 | 125.16569 | 4610 ft | 262 kts | 224° |
| 2026-04-20 01:18 | 24.77663 | 125.15272 | 4233 ft | 261 kts | 220° |
| 2026-04-20 01:18 | 24.76234 | 125.14042 | 3868 ft | 260 kts | 220° |
| 2026-04-20 01:18 | 24.74807 | 125.12825 | 3495 ft | 259 kts | 219° |
| 2026-04-20 01:19 | 24.73350 | 125.11674 | 3119 ft | 258 kts | 206° |
| 2026-04-20 01:19 | 24.71646 | 125.11297 | 3053 ft | 243 kts | 175° |
| 2026-04-20 01:19 | 24.70107 | 125.11803 | 3032 ft | 222 kts | 149° |
| 2026-04-20 01:19 | 24.68982 | 125.12798 | 3006 ft | 194 kts | 129° |
| 2026-04-20 01:20 | 24.68145 | 125.13917 | 3046 ft | 190 kts | 126° |
| 2026-04-20 01:20 | 24.67332 | 125.15054 | 3083 ft | 186 kts | 126° |
| 2026-04-20 01:20 | 24.66551 | 125.16145 | 3039 ft | 178 kts | 126° |
| 2026-04-20 01:20 | 24.65945 | 125.17290 | 2887 ft | 173 kts | 96° |
| 2026-04-20 01:21 | 24.66231 | 125.18476 | 2651 ft | 159 kts | 49° |
| 2026-04-20 01:21 | 24.66963 | 125.19393 | 2422 ft | 161 kts | 44° |
| 2026-04-20 01:21 | 24.67757 | 125.20256 | 2173 ft | 159 kts | 42° |
| 2026-04-20 01:21 | 24.68571 | 125.21051 | 1954 ft | 158 kts | 39° |
| 2026-04-20 01:22 | 24.69415 | 125.21816 | 1772 ft | 156 kts | 38° |
| 2026-04-20 01:22 | 24.70268 | 125.22568 | 1587 ft | 158 kts | 38° |
| 2026-04-20 01:22 | 24.71124 | 125.23314 | 1401 ft | 156 kts | 38° |
| 2026-04-20 01:22 | 24.71978 | 125.24054 | 1226 ft | 159 kts | 37° |
| 2026-04-20 01:23 | 24.72925 | 125.24875 | 1500 ft | 176 kts | 38° |
| 2026-04-20 01:23 | 24.73882 | 125.25699 | 1265 ft | 172 kts | 38° |
| 2026-04-20 01:23 | 24.74805 | 125.26498 | 933 ft | 167 kts | 39° |
| 2026-04-20 01:23 | 24.75684 | 125.27266 | 587 ft | 157 kts | 38° |
| 2026-04-20 01:24 | 24.76524 | 125.27998 | 235 ft | 150 kts | 38° |
| 2026-04-20 01:24 | 24.77335 | 125.28697 | 203 ft | 151 kts | 38° |
| 2026-04-20 01:24 | 24.78170 | 125.29419 | 151 ft | 153 kts | 38° |
| 2026-04-20 01:24 | 24.78869 | 125.30018 | 155 ft | 74 kts | 37° |
| 2026-04-20 01:25 | 24.78992 | 125.30123 | 158 ft | 2 kts | 65° |
| 2026-04-20 01:25 | 24.78983 | 125.30137 | 158 ft | 3 kts | 137° |
| 2026-04-20 01:25 | 24.78956 | 125.30135 | 158 ft | 5 kts | 207° |
| 2026-04-20 01:25 | 24.78931 | 125.30101 | 157 ft | 8 kts | 240° |
| 2026-04-20 01:26 | 24.78882 | 125.30032 | 155 ft | 15 kts | 221° |
| 2026-04-20 01:26 | 24.78784 | 125.29945 | 153 ft | 20 kts | 218° |
| 2026-04-20 01:26 | 24.78667 | 125.29845 | 150 ft | 21 kts | 218° |
| 2026-04-20 01:26 | 24.78551 | 125.29746 | 150 ft | 21 kts | 218° |
| 2026-04-20 01:27 | 24.78439 | 125.29649 | 148 ft | 20 kts | 218° |
| 2026-04-20 01:27 | 24.78331 | 125.29555 | 147 ft | 18 kts | 217° |
| 2026-04-20 01:27 | 24.78263 | 125.29540 | 146 ft | 9 kts | 147° |
| 2026-04-20 01:27 | 24.78220 | 125.29593 | 146 ft | 9 kts | 128° |
| 2026-04-20 01:28 | 24.78182 | 125.29647 | 145 ft | 9 kts | 128° |
| 2026-04-20 01:28 | 24.78142 | 125.29692 | 145 ft | 8 kts | 151° |
| 2026-04-20 01:28 | 24.78088 | 125.29677 | 145 ft | 9 kts | 214° |
| 2026-04-20 01:28 | 24.78065 | 125.29659 | 144 ft | 0 kts | 216° |
| 2026-04-20 01:29 | 24.78063 | 125.29659 | 144 ft | 0 kts | 204° |
| 2026-04-20 01:29 | 24.78061 | 125.29662 | 144 ft | 1 kts | 155° |
| 2026-04-20 01:29 | 24.78056 | 125.29666 | 144 ft | 1 kts | 142° |
| 2026-04-20 01:29 | 24.78050 | 125.29671 | 144 ft | 1 kts | 137° |
| 2026-04-20 01:30 | 24.78044 | 125.29678 | 144 ft | 1 kts | 133° |
| 2026-04-20 01:30 | 24.78039 | 125.29685 | 144 ft | 1 kts | 130° |
| 2026-04-20 01:30 | 24.78034 | 125.29692 | 144 ft | 1 kts | 129° |
| 2026-04-20 01:30 | 24.78028 | 125.29699 | 144 ft | 1 kts | 129° |
| 2026-04-20 01:31 | 24.78023 | 125.29707 | 144 ft | 1 kts | 129° |
| 2026-04-20 01:31 | 24.78022 | 125.29708 | 144 ft | 0 kts | 129° |